sensor_id;sensor_type;location;lat;lon;timestamp;P1;durP1;ratioP1;P2;durP2;ratioP2
23060;SDS011;11698;47.690;9.132;2022-07-24T00:01:12;11.77;;;10.25;;
23060;SDS011;11698;47.690;9.132;2022-07-24T00:03:38;13.55;;;11.30;;
23060;SDS011;11698;47.690;9.132;2022-07-24T00:06:04;12.82;;;11.40;;
23060;SDS011;11698;47.690;9.132;2022-07-24T00:08:30;12.15;;;10.82;;
23060;SDS011;11698;47.690;9.132;2022-07-24T00:10:56;12.60;;;10.85;;
23060;SDS011;11698;47.690;9.132;2022-07-24T00:13:22;12.82;;;10.55;;
23060;SDS011;11698;47.690;9.132;2022-07-24T00:15:48;11.55;;;10.35;;
23060;SDS011;11698;47.690;9.132;2022-07-24T00:18:14;12.10;;;10.25;;
23060;SDS011;11698;47.690;9.132;2022-07-24T00:20:40;11.30;;;10.20;;
23060;SDS011;11698;47.690;9.132;2022-07-24T00:23:06;10.65;;;9.55;;
23060;SDS011;11698;47.690;9.132;2022-07-24T00:25:32;10.70;;;9.55;;
23060;SDS011;11698;47.690;9.132;2022-07-24T00:27:59;10.60;;;9.60;;
23060;SDS011;11698;47.690;9.132;2022-07-24T00:30:25;10.65;;;9.60;;
23060;SDS011;11698;47.690;9.132;2022-07-24T00:32:51;11.00;;;9.90;;
23060;SDS011;11698;47.690;9.132;2022-07-24T00:35:16;10.68;;;9.55;;
23060;SDS011;11698;47.690;9.132;2022-07-24T00:37:43;10.38;;;9.30;;
23060;SDS011;11698;47.690;9.132;2022-07-24T00:40:11;10.80;;;9.70;;
23060;SDS011;11698;47.690;9.132;2022-07-24T00:42:37;11.45;;;10.25;;
23060;SDS011;11698;47.690;9.132;2022-07-24T00:45:03;11.55;;;10.18;;
23060;SDS011;11698;47.690;9.132;2022-07-24T00:47:29;10.70;;;9.63;;
23060;SDS011;11698;47.690;9.132;2022-07-24T00:49:55;11.27;;;10.07;;
23060;SDS011;11698;47.690;9.132;2022-07-24T00:52:21;11.93;;;10.65;;
23060;SDS011;11698;47.690;9.132;2022-07-24T00:54:47;11.52;;;10.10;;
23060;SDS011;11698;47.690;9.132;2022-07-24T00:57:13;11.02;;;9.73;;
23060;SDS011;11698;47.690;9.132;2022-07-24T00:59:40;11.18;;;9.70;;
23060;SDS011;11698;47.690;9.132;2022-07-24T01:02:06;12.13;;;9.90;;
23060;SDS011;11698;47.690;9.132;2022-07-24T01:04:32;11.63;;;10.20;;
23060;SDS011;11698;47.690;9.132;2022-07-24T01:06:58;12.57;;;10.25;;
23060;SDS011;11698;47.690;9.132;2022-07-24T01:09:24;11.17;;;9.97;;
23060;SDS011;11698;47.690;9.132;2022-07-24T01:11:50;11.82;;;10.25;;
23060;SDS011;11698;47.690;9.132;2022-07-24T01:14:17;11.70;;;10.50;;
23060;SDS011;11698;47.690;9.132;2022-07-24T01:16:43;11.80;;;10.38;;
23060;SDS011;11698;47.690;9.132;2022-07-24T01:19:09;10.85;;;9.75;;
23060;SDS011;11698;47.690;9.132;2022-07-24T01:21:35;12.23;;;10.88;;
23060;SDS011;11698;47.690;9.132;2022-07-24T01:24:01;14.40;;;10.20;;
23060;SDS011;11698;47.690;9.132;2022-07-24T01:26:27;12.55;;;9.98;;
23060;SDS011;11698;47.690;9.132;2022-07-24T01:28:54;11.93;;;10.63;;
23060;SDS011;11698;47.690;9.132;2022-07-24T01:31:20;11.27;;;10.07;;
23060;SDS011;11698;47.690;9.132;2022-07-24T01:33:46;11.43;;;9.98;;
23060;SDS011;11698;47.690;9.132;2022-07-24T01:36:12;11.43;;;10.25;;
23060;SDS011;11698;47.690;9.132;2022-07-24T01:38:38;13.23;;;10.70;;
23060;SDS011;11698;47.690;9.132;2022-07-24T01:41:04;12.02;;;10.82;;
23060;SDS011;11698;47.690;9.132;2022-07-24T01:43:30;13.68;;;11.20;;
23060;SDS011;11698;47.690;9.132;2022-07-24T01:45:56;11.37;;;10.20;;
23060;SDS011;11698;47.690;9.132;2022-07-24T01:48:22;12.63;;;10.88;;
23060;SDS011;11698;47.690;9.132;2022-07-24T01:50:48;11.70;;;10.50;;
23060;SDS011;11698;47.690;9.132;2022-07-24T01:53:14;12.68;;;10.88;;
23060;SDS011;11698;47.690;9.132;2022-07-24T01:55:40;15.52;;;11.40;;
23060;SDS011;11698;47.690;9.132;2022-07-24T01:58:06;11.75;;;10.55;;
23060;SDS011;11698;47.690;9.132;2022-07-24T02:00:32;14.40;;;11.23;;
23060;SDS011;11698;47.690;9.132;2022-07-24T02:02:58;12.98;;;10.52;;
23060;SDS011;11698;47.690;9.132;2022-07-24T02:05:24;13.52;;;10.40;;
23060;SDS011;11698;47.690;9.132;2022-07-24T02:07:57;12.38;;;10.65;;
23060;SDS011;11698;47.690;9.132;2022-07-24T02:10:23;12.67;;;11.00;;
23060;SDS011;11698;47.690;9.132;2022-07-24T02:12:50;13.32;;;10.82;;
23060;SDS011;11698;47.690;9.132;2022-07-24T02:15:16;13.23;;;10.32;;
23060;SDS011;11698;47.690;9.132;2022-07-24T02:17:48;13.77;;;10.77;;
23060;SDS011;11698;47.690;9.132;2022-07-24T02:20:15;12.38;;;10.90;;
23060;SDS011;11698;47.690;9.132;2022-07-24T02:22:41;12.23;;;10.52;;
23060;SDS011;11698;47.690;9.132;2022-07-24T02:25:07;13.13;;;10.75;;
23060;SDS011;11698;47.690;9.132;2022-07-24T02:27:33;11.70;;;10.23;;
23060;SDS011;11698;47.690;9.132;2022-07-24T02:29:59;11.60;;;9.93;;
23060;SDS011;11698;47.690;9.132;2022-07-24T02:32:25;14.27;;;10.83;;
23060;SDS011;11698;47.690;9.132;2022-07-24T02:34:52;12.05;;;10.52;;
23060;SDS011;11698;47.690;9.132;2022-07-24T02:37:18;12.55;;;10.15;;
23060;SDS011;11698;47.690;9.132;2022-07-24T02:39:44;12.02;;;10.65;;
23060;SDS011;11698;47.690;9.132;2022-07-24T02:42:10;11.98;;;10.77;;
23060;SDS011;11698;47.690;9.132;2022-07-24T02:44:36;11.50;;;10.35;;
23060;SDS011;11698;47.690;9.132;2022-07-24T02:47:02;13.30;;;10.80;;
23060;SDS011;11698;47.690;9.132;2022-07-24T02:49:28;12.55;;;11.07;;
23060;SDS011;11698;47.690;9.132;2022-07-24T02:51:54;13.23;;;10.83;;
23060;SDS011;11698;47.690;9.132;2022-07-24T02:54:20;13.23;;;10.80;;
23060;SDS011;11698;47.690;9.132;2022-07-24T02:56:46;12.88;;;10.43;;
23060;SDS011;11698;47.690;9.132;2022-07-24T02:59:12;12.63;;;10.45;;
23060;SDS011;11698;47.690;9.132;2022-07-24T03:01:38;13.35;;;10.63;;
23060;SDS011;11698;47.690;9.132;2022-07-24T03:04:04;11.70;;;10.48;;
23060;SDS011;11698;47.690;9.132;2022-07-24T03:06:30;11.98;;;10.77;;
23060;SDS011;11698;47.690;9.132;2022-07-24T03:08:56;12.52;;;10.70;;
23060;SDS011;11698;47.690;9.132;2022-07-24T03:11:22;11.80;;;10.60;;
23060;SDS011;11698;47.690;9.132;2022-07-24T03:13:48;11.93;;;10.63;;
23060;SDS011;11698;47.690;9.132;2022-07-24T03:16:14;12.90;;;10.75;;
23060;SDS011;11698;47.690;9.132;2022-07-24T03:18:41;12.88;;;10.15;;
23060;SDS011;11698;47.690;9.132;2022-07-24T03:21:11;12.02;;;10.80;;
23060;SDS011;11698;47.690;9.132;2022-07-24T03:23:37;12.50;;;10.27;;
23060;SDS011;11698;47.690;9.132;2022-07-24T03:26:04;12.02;;;10.63;;
23060;SDS011;11698;47.690;9.132;2022-07-24T03:28:30;12.65;;;10.50;;
23060;SDS011;11698;47.690;9.132;2022-07-24T03:30:56;12.63;;;10.55;;
23060;SDS011;11698;47.690;9.132;2022-07-24T03:33:22;13.05;;;10.43;;
23060;SDS011;11698;47.690;9.132;2022-07-24T03:35:48;11.23;;;9.43;;
23060;SDS011;11698;47.690;9.132;2022-07-24T03:38:14;11.35;;;10.05;;
23060;SDS011;11698;47.690;9.132;2022-07-24T03:40:40;12.23;;;9.68;;
23060;SDS011;11698;47.690;9.132;2022-07-24T03:43:06;13.77;;;10.05;;
23060;SDS011;11698;47.690;9.132;2022-07-24T03:45:32;11.15;;;9.95;;
23060;SDS011;11698;47.690;9.132;2022-07-24T03:47:58;11.45;;;9.77;;
23060;SDS011;11698;47.690;9.132;2022-07-24T03:50:24;11.30;;;10.10;;
23060;SDS011;11698;47.690;9.132;2022-07-24T03:52:50;12.23;;;9.90;;
23060;SDS011;11698;47.690;9.132;2022-07-24T03:55:16;11.48;;;10.25;;
23060;SDS011;11698;47.690;9.132;2022-07-24T03:57:43;11.32;;;10.02;;
23060;SDS011;11698;47.690;9.132;2022-07-24T04:00:09;12.37;;;9.57;;
23060;SDS011;11698;47.690;9.132;2022-07-24T04:02:35;12.73;;;10.00;;
23060;SDS011;11698;47.690;9.132;2022-07-24T04:05:01;13.35;;;10.13;;
23060;SDS011;11698;47.690;9.132;2022-07-24T04:07:28;13.57;;;10.38;;
23060;SDS011;11698;47.690;9.132;2022-07-24T04:09:54;11.20;;;10.00;;
23060;SDS011;11698;47.690;9.132;2022-07-24T04:12:20;11.85;;;10.50;;
23060;SDS011;11698;47.690;9.132;2022-07-24T04:14:46;11.35;;;10.20;;
23060;SDS011;11698;47.690;9.132;2022-07-24T04:17:12;11.27;;;10.18;;
23060;SDS011;11698;47.690;9.132;2022-07-24T04:19:38;11.23;;;10.02;;
23060;SDS011;11698;47.690;9.132;2022-07-24T04:22:04;12.37;;;10.00;;
23060;SDS011;11698;47.690;9.132;2022-07-24T04:24:30;13.90;;;10.48;;
23060;SDS011;11698;47.690;9.132;2022-07-24T04:26:56;12.73;;;10.18;;
23060;SDS011;11698;47.690;9.132;2022-07-24T04:29:22;14.10;;;10.20;;
23060;SDS011;11698;47.690;9.132;2022-07-24T04:31:48;11.00;;;9.77;;
23060;SDS011;11698;47.690;9.132;2022-07-24T04:34:14;12.25;;;10.25;;
23060;SDS011;11698;47.690;9.132;2022-07-24T04:36:40;12.43;;;10.27;;
23060;SDS011;11698;47.690;9.132;2022-07-24T04:39:06;15.03;;;11.13;;
23060;SDS011;11698;47.690;9.132;2022-07-24T04:41:32;15.45;;;11.38;;
23060;SDS011;11698;47.690;9.132;2022-07-24T04:43:58;12.73;;;10.75;;
23060;SDS011;11698;47.690;9.132;2022-07-24T04:46:24;17.10;;;11.55;;
23060;SDS011;11698;47.690;9.132;2022-07-24T04:48:50;14.20;;;11.55;;
23060;SDS011;11698;47.690;9.132;2022-07-24T04:51:16;15.80;;;11.13;;
23060;SDS011;11698;47.690;9.132;2022-07-24T04:53:42;14.50;;;11.35;;
23060;SDS011;11698;47.690;9.132;2022-07-24T04:56:08;16.38;;;11.05;;
23060;SDS011;11698;47.690;9.132;2022-07-24T04:58:34;14.50;;;11.25;;
23060;SDS011;11698;47.690;9.132;2022-07-24T05:01:00;14.27;;;11.07;;
23060;SDS011;11698;47.690;9.132;2022-07-24T05:03:26;13.13;;;10.60;;
23060;SDS011;11698;47.690;9.132;2022-07-24T05:05:52;11.60;;;10.43;;
23060;SDS011;11698;47.690;9.132;2022-07-24T05:08:18;11.67;;;10.40;;
23060;SDS011;11698;47.690;9.132;2022-07-24T05:10:44;12.30;;;9.70;;
23060;SDS011;11698;47.690;9.132;2022-07-24T05:13:10;11.35;;;9.77;;
23060;SDS011;11698;47.690;9.132;2022-07-24T05:15:36;11.77;;;9.80;;
23060;SDS011;11698;47.690;9.132;2022-07-24T05:18:02;13.20;;;10.15;;
23060;SDS011;11698;47.690;9.132;2022-07-24T05:20:28;11.40;;;10.30;;
23060;SDS011;11698;47.690;9.132;2022-07-24T05:22:54;11.15;;;9.90;;
23060;SDS011;11698;47.690;9.132;2022-07-24T05:25:21;12.15;;;9.52;;
23060;SDS011;11698;47.690;9.132;2022-07-24T05:27:47;12.32;;;10.43;;
23060;SDS011;11698;47.690;9.132;2022-07-24T05:30:13;12.80;;;10.10;;
23060;SDS011;11698;47.690;9.132;2022-07-24T05:32:39;12.25;;;10.27;;
23060;SDS011;11698;47.690;9.132;2022-07-24T05:35:05;12.13;;;10.50;;
23060;SDS011;11698;47.690;9.132;2022-07-24T05:37:31;11.38;;;9.50;;
23060;SDS011;11698;47.690;9.132;2022-07-24T05:39:57;12.00;;;10.75;;
23060;SDS011;11698;47.690;9.132;2022-07-24T05:42:23;13.13;;;11.25;;
23060;SDS011;11698;47.690;9.132;2022-07-24T05:44:49;13.05;;;10.15;;
23060;SDS011;11698;47.690;9.132;2022-07-24T05:47:15;12.88;;;10.73;;
23060;SDS011;11698;47.690;9.132;2022-07-24T05:49:41;12.20;;;10.60;;
23060;SDS011;11698;47.690;9.132;2022-07-24T05:52:07;15.60;;;11.38;;
23060;SDS011;11698;47.690;9.132;2022-07-24T05:54:33;12.30;;;11.05;;
23060;SDS011;11698;47.690;9.132;2022-07-24T05:56:59;13.43;;;10.93;;
23060;SDS011;11698;47.690;9.132;2022-07-24T05:59:25;12.55;;;11.18;;
23060;SDS011;11698;47.690;9.132;2022-07-24T06:01:51;12.73;;;10.93;;
23060;SDS011;11698;47.690;9.132;2022-07-24T06:04:17;11.60;;;10.40;;
23060;SDS011;11698;47.690;9.132;2022-07-24T06:06:43;11.68;;;10.45;;
23060;SDS011;11698;47.690;9.132;2022-07-24T06:09:09;12.00;;;10.80;;
23060;SDS011;11698;47.690;9.132;2022-07-24T06:11:35;11.20;;;10.10;;
23060;SDS011;11698;47.690;9.132;2022-07-24T06:14:01;11.27;;;10.18;;
23060;SDS011;11698;47.690;9.132;2022-07-24T06:16:28;12.95;;;11.10;;
23060;SDS011;11698;47.690;9.132;2022-07-24T06:18:54;11.93;;;10.73;;
23060;SDS011;11698;47.690;9.132;2022-07-24T06:21:20;12.55;;;10.85;;
23060;SDS011;11698;47.690;9.132;2022-07-24T06:23:46;13.75;;;11.10;;
23060;SDS011;11698;47.690;9.132;2022-07-24T06:26:12;13.77;;;11.38;;
23060;SDS011;11698;47.690;9.132;2022-07-24T06:28:38;12.40;;;11.10;;
23060;SDS011;11698;47.690;9.132;2022-07-24T06:31:04;12.55;;;11.13;;
23060;SDS011;11698;47.690;9.132;2022-07-24T06:33:30;12.03;;;10.83;;
23060;SDS011;11698;47.690;9.132;2022-07-24T06:35:56;12.20;;;10.90;;
23060;SDS011;11698;47.690;9.132;2022-07-24T06:38:22;12.43;;;11.20;;
23060;SDS011;11698;47.690;9.132;2022-07-24T06:40:48;13.20;;;11.00;;
23060;SDS011;11698;47.690;9.132;2022-07-24T06:43:14;13.23;;;11.60;;
23060;SDS011;11698;47.690;9.132;2022-07-24T06:45:40;13.15;;;11.70;;
23060;SDS011;11698;47.690;9.132;2022-07-24T06:48:08;13.77;;;12.20;;
23060;SDS011;11698;47.690;9.132;2022-07-24T06:50:34;13.70;;;11.90;;
23060;SDS011;11698;47.690;9.132;2022-07-24T06:53:00;14.85;;;11.98;;
23060;SDS011;11698;47.690;9.132;2022-07-24T06:55:26;13.70;;;11.68;;
23060;SDS011;11698;47.690;9.132;2022-07-24T06:57:52;12.50;;;11.23;;
23060;SDS011;11698;47.690;9.132;2022-07-24T07:00:19;14.23;;;12.40;;
23060;SDS011;11698;47.690;9.132;2022-07-24T07:02:45;13.75;;;12.05;;
23060;SDS011;11698;47.690;9.132;2022-07-24T07:05:11;12.52;;;11.18;;
23060;SDS011;11698;47.690;9.132;2022-07-24T07:07:37;13.43;;;11.90;;
23060;SDS011;11698;47.690;9.132;2022-07-24T07:10:04;12.98;;;10.80;;
23060;SDS011;11698;47.690;9.132;2022-07-24T07:12:31;13.07;;;11.48;;
23060;SDS011;11698;47.690;9.132;2022-07-24T07:14:57;16.52;;;12.18;;
23060;SDS011;11698;47.690;9.132;2022-07-24T07:17:24;14.53;;;11.53;;
23060;SDS011;11698;47.690;9.132;2022-07-24T07:19:50;12.80;;;10.48;;
23060;SDS011;11698;47.690;9.132;2022-07-24T07:22:16;14.17;;;10.97;;
23060;SDS011;11698;47.690;9.132;2022-07-24T07:24:42;13.27;;;10.93;;
23060;SDS011;11698;47.690;9.132;2022-07-24T07:27:08;11.83;;;10.60;;
23060;SDS011;11698;47.690;9.132;2022-07-24T07:29:34;12.63;;;11.32;;
23060;SDS011;11698;47.690;9.132;2022-07-24T07:32:00;12.57;;;10.97;;
23060;SDS011;11698;47.690;9.132;2022-07-24T07:34:26;11.70;;;10.38;;
23060;SDS011;11698;47.690;9.132;2022-07-24T07:36:52;12.13;;;10.60;;
23060;SDS011;11698;47.690;9.132;2022-07-24T07:39:18;12.32;;;10.30;;
23060;SDS011;11698;47.690;9.132;2022-07-24T07:41:44;11.00;;;9.90;;
23060;SDS011;11698;47.690;9.132;2022-07-24T07:44:11;11.43;;;10.15;;
23060;SDS011;11698;47.690;9.132;2022-07-24T07:46:37;11.20;;;9.75;;
23060;SDS011;11698;47.690;9.132;2022-07-24T07:49:03;10.80;;;9.70;;
23060;SDS011;11698;47.690;9.132;2022-07-24T07:51:29;10.35;;;8.68;;
23060;SDS011;11698;47.690;9.132;2022-07-24T07:53:55;10.02;;;9.07;;
23060;SDS011;11698;47.690;9.132;2022-07-24T07:56:21;10.27;;;9.20;;
23060;SDS011;11698;47.690;9.132;2022-07-24T07:58:47;9.43;;;8.52;;
23060;SDS011;11698;47.690;9.132;2022-07-24T08:01:13;10.93;;;9.63;;
23060;SDS011;11698;47.690;9.132;2022-07-24T08:03:39;10.32;;;8.65;;
23060;SDS011;11698;47.690;9.132;2022-07-24T08:06:05;10.23;;;9.23;;
23060;SDS011;11698;47.690;9.132;2022-07-24T08:08:31;10.68;;;9.65;;
23060;SDS011;11698;47.690;9.132;2022-07-24T08:10:57;12.45;;;10.07;;
23060;SDS011;11698;47.690;9.132;2022-07-24T08:13:24;11.55;;;9.68;;
23060;SDS011;11698;47.690;9.132;2022-07-24T08:15:50;11.37;;;9.63;;
23060;SDS011;11698;47.690;9.132;2022-07-24T08:18:16;11.07;;;9.82;;
23060;SDS011;11698;47.690;9.132;2022-07-24T08:20:42;11.43;;;9.88;;
23060;SDS011;11698;47.690;9.132;2022-07-24T08:23:09;11.13;;;9.88;;
23060;SDS011;11698;47.690;9.132;2022-07-24T08:25:35;10.80;;;9.80;;
23060;SDS011;11698;47.690;9.132;2022-07-24T08:28:01;11.57;;;10.25;;
23060;SDS011;11698;47.690;9.132;2022-07-24T08:30:27;10.50;;;9.43;;
23060;SDS011;11698;47.690;9.132;2022-07-24T08:32:53;11.27;;;10.18;;
23060;SDS011;11698;47.690;9.132;2022-07-24T08:35:19;10.80;;;9.70;;
23060;SDS011;11698;47.690;9.132;2022-07-24T08:37:45;11.50;;;10.05;;
23060;SDS011;11698;47.690;9.132;2022-07-24T08:40:12;10.43;;;9.27;;
23060;SDS011;11698;47.690;9.132;2022-07-24T08:42:38;10.77;;;9.37;;
23060;SDS011;11698;47.690;9.132;2022-07-24T08:45:05;10.47;;;9.47;;
23060;SDS011;11698;47.690;9.132;2022-07-24T08:47:31;11.10;;;9.97;;
23060;SDS011;11698;47.690;9.132;2022-07-24T08:49:58;10.40;;;9.45;;
23060;SDS011;11698;47.690;9.132;2022-07-24T08:52:25;10.25;;;9.23;;
23060;SDS011;11698;47.690;9.132;2022-07-24T08:54:51;10.52;;;9.43;;
23060;SDS011;11698;47.690;9.132;2022-07-24T08:57:18;10.18;;;9.23;;
23060;SDS011;11698;47.690;9.132;2022-07-24T08:59:44;10.25;;;9.25;;
23060;SDS011;11698;47.690;9.132;2022-07-24T09:02:10;10.33;;;9.23;;
23060;SDS011;11698;47.690;9.132;2022-07-24T09:04:40;10.52;;;9.20;;
23060;SDS011;11698;47.690;9.132;2022-07-24T09:07:10;9.90;;;8.90;;
23060;SDS011;11698;47.690;9.132;2022-07-24T09:09:37;9.83;;;8.83;;
23060;SDS011;11698;47.690;9.132;2022-07-24T09:14:33;9.88;;;8.88;;
23060;SDS011;11698;47.690;9.132;2022-07-24T09:17:06;9.55;;;8.55;;
23060;SDS011;11698;47.690;9.132;2022-07-24T09:19:45;9.82;;;8.82;;
23060;SDS011;11698;47.690;9.132;2022-07-24T09:22:16;9.70;;;8.70;;
23060;SDS011;11698;47.690;9.132;2022-07-24T09:24:42;10.18;;;8.93;;
23060;SDS011;11698;47.690;9.132;2022-07-24T09:27:10;9.63;;;8.68;;
23060;SDS011;11698;47.690;9.132;2022-07-24T09:29:39;9.45;;;8.45;;
23060;SDS011;11698;47.690;9.132;2022-07-24T09:32:05;9.63;;;8.00;;
23060;SDS011;11698;47.690;9.132;2022-07-24T09:34:37;10.20;;;9.07;;
23060;SDS011;11698;47.690;9.132;2022-07-24T09:37:04;9.63;;;8.63;;
23060;SDS011;11698;47.690;9.132;2022-07-24T09:39:32;10.80;;;8.60;;
23060;SDS011;11698;47.690;9.132;2022-07-24T09:41:59;9.15;;;8.32;;
23060;SDS011;11698;47.690;9.132;2022-07-24T09:44:25;9.50;;;8.60;;
23060;SDS011;11698;47.690;9.132;2022-07-24T09:46:55;9.57;;;8.68;;
23060;SDS011;11698;47.690;9.132;2022-07-24T09:49:22;9.45;;;8.52;;
23060;SDS011;11698;47.690;9.132;2022-07-24T09:59:47;8.07;;;7.25;;
23060;SDS011;11698;47.690;9.132;2022-07-24T10:02:13;8.00;;;7.23;;
23060;SDS011;11698;47.690;9.132;2022-07-24T10:04:41;9.10;;;7.85;;
23060;SDS011;11698;47.690;9.132;2022-07-24T10:07:08;8.35;;;7.45;;
23060;SDS011;11698;47.690;9.132;2022-07-24T10:09:35;8.13;;;7.30;;
23060;SDS011;11698;47.690;9.132;2022-07-24T10:12:01;8.50;;;7.70;;
23060;SDS011;11698;47.690;9.132;2022-07-24T10:14:29;8.68;;;7.88;;
23060;SDS011;11698;47.690;9.132;2022-07-24T10:17:02;8.40;;;7.65;;
23060;SDS011;11698;47.690;9.132;2022-07-24T10:19:33;8.50;;;7.70;;
23060;SDS011;11698;47.690;9.132;2022-07-24T10:22:00;8.33;;;7.57;;
23060;SDS011;11698;47.690;9.132;2022-07-24T10:27:04;8.25;;;7.47;;
23060;SDS011;11698;47.690;9.132;2022-07-24T10:29:31;9.52;;;8.05;;
23060;SDS011;11698;47.690;9.132;2022-07-24T10:31:58;8.85;;;7.85;;
23060;SDS011;11698;47.690;9.132;2022-07-24T10:42:06;8.18;;;7.38;;
23060;SDS011;11698;47.690;9.132;2022-07-24T10:44:32;7.82;;;7.13;;
23060;SDS011;11698;47.690;9.132;2022-07-24T10:49:44;8.35;;;7.50;;
23060;SDS011;11698;47.690;9.132;2022-07-24T10:52:11;8.38;;;7.10;;
23060;SDS011;11698;47.690;9.132;2022-07-24T10:54:38;9.40;;;7.63;;
23060;SDS011;11698;47.690;9.132;2022-07-24T10:57:05;8.05;;;7.35;;
23060;SDS011;11698;47.690;9.132;2022-07-24T10:59:35;7.78;;;7.10;;
23060;SDS011;11698;47.690;9.132;2022-07-24T11:04:46;8.20;;;7.50;;
23060;SDS011;11698;47.690;9.132;2022-07-24T11:07:12;7.85;;;7.07;;
23060;SDS011;11698;47.690;9.132;2022-07-24T11:12:30;7.55;;;6.85;;
23060;SDS011;11698;47.690;9.132;2022-07-24T11:15:00;7.82;;;7.00;;
23060;SDS011;11698;47.690;9.132;2022-07-24T11:17:45;7.40;;;6.70;;
23060;SDS011;11698;47.690;9.132;2022-07-24T11:20:17;7.15;;;6.45;;
23060;SDS011;11698;47.690;9.132;2022-07-24T11:22:50;6.90;;;6.10;;
23060;SDS011;11698;47.690;9.132;2022-07-24T11:25:18;6.65;;;6.05;;
23060;SDS011;11698;47.690;9.132;2022-07-24T11:27:49;6.55;;;5.95;;
23060;SDS011;11698;47.690;9.132;2022-07-24T11:30:16;6.67;;;6.03;;
23060;SDS011;11698;47.690;9.132;2022-07-24T11:32:42;6.93;;;6.28;;
23060;SDS011;11698;47.690;9.132;2022-07-24T11:35:09;6.45;;;5.85;;
23060;SDS011;11698;47.690;9.132;2022-07-24T11:37:35;7.13;;;6.40;;
23060;SDS011;11698;47.690;9.132;2022-07-24T11:40:02;5.93;;;5.43;;
23060;SDS011;11698;47.690;9.132;2022-07-24T11:42:30;6.45;;;5.85;;
23060;SDS011;11698;47.690;9.132;2022-07-24T11:44:56;6.55;;;5.95;;
23060;SDS011;11698;47.690;9.132;2022-07-24T11:47:23;7.88;;;6.20;;
23060;SDS011;11698;47.690;9.132;2022-07-24T11:49:50;7.03;;;6.18;;
23060;SDS011;11698;47.690;9.132;2022-07-24T11:52:21;6.40;;;5.90;;
23060;SDS011;11698;47.690;9.132;2022-07-24T11:54:49;6.65;;;6.05;;
23060;SDS011;11698;47.690;9.132;2022-07-24T11:57:26;5.70;;;5.30;;
23060;SDS011;11698;47.690;9.132;2022-07-24T11:59:52;5.97;;;5.40;;
23060;SDS011;11698;47.690;9.132;2022-07-24T12:02:20;6.43;;;5.82;;
23060;SDS011;11698;47.690;9.132;2022-07-24T12:04:46;6.78;;;6.13;;
23060;SDS011;11698;47.690;9.132;2022-07-24T12:07:17;6.95;;;5.82;;
23060;SDS011;11698;47.690;9.132;2022-07-24T12:09:51;5.80;;;5.28;;
23060;SDS011;11698;47.690;9.132;2022-07-24T12:12:27;5.80;;;5.30;;
23060;SDS011;11698;47.690;9.132;2022-07-24T12:15:09;6.38;;;5.75;;
23060;SDS011;11698;47.690;9.132;2022-07-24T12:20:28;5.88;;;5.38;;
23060;SDS011;11698;47.690;9.132;2022-07-24T12:22:54;5.90;;;5.40;;
23060;SDS011;11698;47.690;9.132;2022-07-24T12:25:20;5.97;;;5.47;;
23060;SDS011;11698;47.690;9.132;2022-07-24T12:27:47;5.60;;;5.20;;
23060;SDS011;11698;47.690;9.132;2022-07-24T12:32:56;5.63;;;5.13;;
23060;SDS011;11698;47.690;9.132;2022-07-24T12:35:22;5.82;;;5.20;;
23060;SDS011;11698;47.690;9.132;2022-07-24T12:37:49;5.45;;;5.05;;
23060;SDS011;11698;47.690;9.132;2022-07-24T12:40:23;5.50;;;5.00;;
23060;SDS011;11698;47.690;9.132;2022-07-24T12:42:59;5.18;;;4.78;;
23060;SDS011;11698;47.690;9.132;2022-07-24T12:45:26;5.10;;;4.60;;
23060;SDS011;11698;47.690;9.132;2022-07-24T12:48:09;5.53;;;5.07;;
23060;SDS011;11698;47.690;9.132;2022-07-24T12:50:36;5.18;;;4.70;;
23060;SDS011;11698;47.690;9.132;2022-07-24T12:53:06;4.63;;;4.22;;
23060;SDS011;11698;47.690;9.132;2022-07-24T12:55:32;4.90;;;4.50;;
23060;SDS011;11698;47.690;9.132;2022-07-24T12:58:02;5.10;;;4.60;;
23060;SDS011;11698;47.690;9.132;2022-07-24T13:00:29;5.07;;;4.60;;
23060;SDS011;11698;47.690;9.132;2022-07-24T13:02:55;4.78;;;4.38;;
23060;SDS011;11698;47.690;9.132;2022-07-24T13:05:40;4.50;;;4.10;;
23060;SDS011;11698;47.690;9.132;2022-07-24T13:08:07;5.10;;;4.70;;
23060;SDS011;11698;47.690;9.132;2022-07-24T13:10:34;5.00;;;4.50;;
23060;SDS011;11698;47.690;9.132;2022-07-24T13:13:00;5.63;;;5.07;;
23060;SDS011;11698;47.690;9.132;2022-07-24T13:15:27;5.22;;;4.82;;
23060;SDS011;11698;47.690;9.132;2022-07-24T13:17:53;4.77;;;4.40;;
23060;SDS011;11698;47.690;9.132;2022-07-24T13:20:19;5.00;;;4.70;;
23060;SDS011;11698;47.690;9.132;2022-07-24T13:22:46;5.10;;;4.65;;
23060;SDS011;11698;47.690;9.132;2022-07-24T13:25:12;5.28;;;4.85;;
23060;SDS011;11698;47.690;9.132;2022-07-24T13:27:38;5.33;;;4.93;;
23060;SDS011;11698;47.690;9.132;2022-07-24T13:30:04;5.20;;;4.80;;
23060;SDS011;11698;47.690;9.132;2022-07-24T13:32:30;5.40;;;4.90;;
23060;SDS011;11698;47.690;9.132;2022-07-24T13:34:56;5.05;;;4.63;;
23060;SDS011;11698;47.690;9.132;2022-07-24T13:37:22;4.68;;;4.28;;
23060;SDS011;11698;47.690;9.132;2022-07-24T13:39:48;4.63;;;4.28;;
23060;SDS011;11698;47.690;9.132;2022-07-24T13:42:14;5.00;;;4.60;;
23060;SDS011;11698;47.690;9.132;2022-07-24T13:44:41;4.80;;;4.40;;
23060;SDS011;11698;47.690;9.132;2022-07-24T13:47:07;5.07;;;4.68;;
23060;SDS011;11698;47.690;9.132;2022-07-24T13:49:33;5.00;;;4.50;;
23060;SDS011;11698;47.690;9.132;2022-07-24T13:51:59;4.60;;;4.28;;
23060;SDS011;11698;47.690;9.132;2022-07-24T13:54:25;4.80;;;4.40;;
23060;SDS011;11698;47.690;9.132;2022-07-24T13:56:52;4.97;;;4.57;;
23060;SDS011;11698;47.690;9.132;2022-07-24T13:59:18;4.55;;;4.25;;
23060;SDS011;11698;47.690;9.132;2022-07-24T14:01:44;4.63;;;4.32;;
23060;SDS011;11698;47.690;9.132;2022-07-24T14:04:10;5.07;;;4.57;;
23060;SDS011;11698;47.690;9.132;2022-07-24T14:06:36;4.88;;;4.47;;
23060;SDS011;11698;47.690;9.132;2022-07-24T14:09:03;4.55;;;4.25;;
23060;SDS011;11698;47.690;9.132;2022-07-24T14:11:29;5.25;;;4.35;;
23060;SDS011;11698;47.690;9.132;2022-07-24T14:13:56;4.95;;;4.50;;
23060;SDS011;11698;47.690;9.132;2022-07-24T14:16:22;5.05;;;4.65;;
23060;SDS011;11698;47.690;9.132;2022-07-24T14:18:48;5.03;;;4.53;;
23060;SDS011;11698;47.690;9.132;2022-07-24T14:21:14;5.00;;;4.55;;
23060;SDS011;11698;47.690;9.132;2022-07-24T14:23:40;4.75;;;4.40;;
23060;SDS011;11698;47.690;9.132;2022-07-24T14:26:06;5.20;;;4.68;;
23060;SDS011;11698;47.690;9.132;2022-07-24T14:28:32;5.35;;;4.85;;
23060;SDS011;11698;47.690;9.132;2022-07-24T14:30:58;5.57;;;5.07;;
23060;SDS011;11698;47.690;9.132;2022-07-24T14:33:24;5.40;;;4.90;;
23060;SDS011;11698;47.690;9.132;2022-07-24T14:35:50;5.57;;;5.07;;
23060;SDS011;11698;47.690;9.132;2022-07-24T14:38:16;5.57;;;5.07;;
23060;SDS011;11698;47.690;9.132;2022-07-24T14:40:42;5.60;;;5.00;;
23060;SDS011;11698;47.690;9.132;2022-07-24T14:43:08;5.85;;;5.25;;
23060;SDS011;11698;47.690;9.132;2022-07-24T14:45:34;5.20;;;4.80;;
23060;SDS011;11698;47.690;9.132;2022-07-24T14:48:00;5.43;;;4.93;;
23060;SDS011;11698;47.690;9.132;2022-07-24T14:50:26;5.50;;;5.00;;
23060;SDS011;11698;47.690;9.132;2022-07-24T14:52:52;5.82;;;5.32;;
23060;SDS011;11698;47.690;9.132;2022-07-24T14:55:18;6.55;;;5.97;;
23060;SDS011;11698;47.690;9.132;2022-07-24T14:57:44;6.30;;;5.70;;
23060;SDS011;11698;47.690;9.132;2022-07-24T15:00:10;6.65;;;6.13;;
23060;SDS011;11698;47.690;9.132;2022-07-24T15:02:36;6.78;;;6.18;;
23060;SDS011;11698;47.690;9.132;2022-07-24T15:05:02;6.88;;;6.28;;